Time;durP1;ratioP1;P1;durP2;ratioP2;P2;SDS_P1;SDS_P2;PMS_P1;PMS_P2;Temp;Humidity;BMP_temperature;BMP_pressure;BME280_temperature;BME280_humidity;BME280_pressure;Samples;Min_cycle;Max_cycle;Signal;HPM_P1;HPM_P2
2021/12/07 00:00:13;;;;;;;10.00;5.90;;;1.30;99.90;;;;;;5076368;28;20028;-73
2021/12/07 00:02:38;;;;;;;8.63;6.15;;;1.30;99.90;;;;;;5077106;28;20033;-73
2021/12/07 00:05:05;;;;;;;8.48;5.68;;;1.30;99.90;;;;;;5075409;28;20029;-73
2021/12/07 00:07:30;;;;;;;8.32;6.35;;;1.30;99.90;;;;;;5067808;28;20503;-73
2021/12/07 00:09:56;;;;;;;8.93;5.78;;;1.40;99.90;;;;;;5070294;28;20026;-73
2021/12/07 00:12:22;;;;;;;8.70;6.25;;;1.30;99.90;;;;;;5051904;28;20026;-73
2021/12/07 00:14:48;;;;;;;8.07;5.85;;;1.30;99.90;;;;;;5076208;28;20105;-73
2021/12/07 00:17:14;;;;;;;8.00;5.32;;;1.30;99.90;;;;;;5074179;28;20075;-73
2021/12/07 00:19:40;;;;;;;8.75;5.75;;;1.30;99.90;;;;;;5069914;28;20030;-73
2021/12/07 00:22:08;;;;;;;6.90;5.10;;;1.30;99.90;;;;;;5075499;28;20026;-73
2021/12/07 00:24:34;;;;;;;7.97;5.32;;;1.30;99.90;;;;;;4996834;28;20059;-73
2021/12/07 00:26:59;;;;;;;8.00;5.70;;;1.30;99.90;;;;;;5064406;28;20083;-73
2021/12/07 00:29:25;;;;;;;9.27;5.53;;;1.30;99.90;;;;;;5073281;28;20041;-73
2021/12/07 00:32:06;;;;;;;6.70;5.15;;;1.30;99.90;;;;;;5075281;28;20402;-73
2021/12/07 00:36:59;;;;;;;7.88;5.47;;;1.30;99.90;;;;;;5008150;28;20034;-73
2021/12/07 00:39:25;;;;;;;7.40;5.15;;;1.30;99.90;;;;;;5075146;28;20487;-73
2021/12/07 00:41:52;;;;;;;8.38;5.28;;;1.30;99.90;;;;;;5076342;28;20441;-73
2021/12/07 00:44:20;;;;;;;6.20;5.13;;;1.30;99.90;;;;;;5070135;28;20106;-73
2021/12/07 00:46:46;;;;;;;6.15;5.32;;;1.30;99.90;;;;;;5055744;28;20076;-73
2021/12/07 00:49:12;;;;;;;6.97;5.13;;;1.40;99.90;;;;;;5074355;28;20030;-73
2021/12/07 00:51:38;;;;;;;6.90;5.40;;;1.30;99.90;;;;;;5074617;28;20029;-73
2021/12/07 00:54:04;;;;;;;8.77;4.97;;;1.40;99.90;;;;;;5075038;28;20041;-73
2021/12/07 00:56:30;;;;;;;7.55;5.22;;;1.40;99.90;;;;;;5076147;28;20038;-73
2021/12/07 00:58:56;;;;;;;8.40;5.40;;;1.40;99.90;;;;;;5074188;28;20033;-73
2021/12/07 01:01:22;;;;;;;7.88;4.90;;;1.40;99.90;;;;;;5075302;28;20033;-73
2021/12/07 01:03:49;;;;;;;8.23;5.20;;;1.40;99.90;;;;;;5075196;28;20136;-73
2021/12/07 01:25:06;;;;;;;10.77;7.07;;;1.20;99.90;;;;;;5008083;28;20353;-73
2021/12/07 01:27:32;;;;;;;10.10;6.70;;;1.10;99.90;;;;;;5074767;28;20022;-73
2021/12/07 01:30:11;;;;;;;10.93;6.47;;;1.10;99.90;;;;;;5075448;28;20112;-73
2021/12/07 01:33:36;;;;;;;12.27;7.78;;;1.10;99.90;;;;;;5075407;28;20022;-73
2021/12/07 01:35:56;;;;;;;10.93;7.50;;;1.10;99.90;;;;;;4997059;28;20046;-73
2021/12/07 01:38:36;;;;;;;11.02;7.65;;;1.10;99.90;;;;;;5072757;28;20113;-73
2021/12/07 01:44:09;;;;;;;11.73;7.50;;;1.00;99.90;;;;;;5007243;28;20064;-73
2021/12/07 01:59:58;;;;;;;11.00;7.20;;;1.00;99.90;;;;;;5007322;28;20044;-73
2021/12/07 02:02:27;;;;;;;12.35;7.65;;;1.00;99.90;;;;;;5075418;28;20030;-74
2021/12/07 02:04:55;;;;;;;13.98;7.20;;;1.00;99.90;;;;;;5072003;28;20033;-74
2021/12/07 02:07:21;;;;;;;12.75;8.10;;;1.00;99.90;;;;;;5065683;28;20057;-74
2021/12/07 02:09:51;;;;;;;12.50;8.23;;;1.00;99.90;;;;;;5031862;28;20026;-74
2021/12/07 02:12:17;;;;;;;11.20;7.38;;;1.00;99.90;;;;;;5066632;28;20087;-74
2021/12/07 02:14:43;;;;;;;14.57;7.32;;;1.00;99.90;;;;;;5073532;28;20034;-73
2021/12/07 02:17:12;;;;;;;11.43;7.20;;;1.00;99.90;;;;;;5072684;28;20141;-73
2021/12/07 02:19:39;;;;;;;12.38;7.68;;;1.00;99.90;;;;;;5078596;28;20034;-74
2021/12/07 02:22:05;;;;;;;12.85;7.72;;;1.00;99.90;;;;;;5078047;28;20451;-73
2021/12/07 02:24:31;;;;;;;15.02;7.95;;;1.00;99.90;;;;;;5088348;28;20028;-74
2021/12/07 02:26:58;;;;;;;14.10;8.15;;;1.00;99.90;;;;;;5077267;28;20048;-73
2021/12/07 02:29:24;;;;;;;13.57;8.15;;;1.00;99.90;;;;;;5077806;28;20022;-74
2021/12/07 02:31:52;;;;;;;13.25;7.82;;;1.00;99.90;;;;;;5077434;28;20481;-74
2021/12/07 02:34:20;;;;;;;15.48;8.13;;;1.00;99.90;;;;;;5078735;28;20413;-74
2021/12/07 02:36:46;;;;;;;12.02;7.20;;;1.10;99.90;;;;;;5077556;28;20040;-74
2021/12/07 02:39:13;;;;;;;12.52;7.28;;;1.10;99.90;;;;;;5078002;28;20022;-73
2021/12/07 02:41:40;;;;;;;12.55;7.30;;;1.10;99.90;;;;;;5078241;28;20034;-73
2021/12/07 02:44:07;;;;;;;12.10;6.57;;;1.10;99.90;;;;;;5075247;28;20098;-73
2021/12/07 02:46:38;;;;;;;12.27;7.35;;;1.10;99.90;;;;;;5077713;28;20086;-73
2021/12/07 02:49:08;;;;;;;11.93;6.70;;;1.10;99.90;;;;;;5075532;28;20037;-73
2021/12/07 02:51:34;;;;;;;11.80;6.55;;;1.10;99.90;;;;;;5077450;28;20116;-73
2021/12/07 02:54:00;;;;;;;10.82;6.13;;;1.10;99.90;;;;;;5078419;28;20418;-73
2021/12/07 02:56:27;;;;;;;10.38;6.32;;;1.10;99.90;;;;;;5077773;28;20032;-73
2021/12/07 02:58:58;;;;;;;7.70;5.13;;;1.10;99.90;;;;;;5076652;28;20026;-73
2021/12/07 03:01:29;;;;;;;6.95;4.68;;;1.20;99.90;;;;;;5076858;28;20060;-73
2021/12/07 03:04:05;;;;;;;6.30;4.57;;;1.20;99.90;;;;;;5076646;28;20049;-74
2021/12/07 03:06:54;;;;;;;7.32;4.95;;;1.20;99.90;;;;;;5077828;28;20350;-73
2021/12/07 03:28:21;;;;;;;4.78;4.20;;;1.50;99.90;;;;;;5007929;28;20113;-72
2021/12/07 03:30:47;;;;;;;5.20;4.30;;;1.50;99.90;;;;;;5077050;28;20032;-71
2021/12/07 03:33:13;;;;;;;6.25;4.38;;;1.50;99.90;;;;;;5077800;28;20390;-71
2021/12/07 03:35:39;;;;;;;6.60;4.28;;;1.50;99.90;;;;;;5077071;28;20161;-71
2021/12/07 03:38:07;;;;;;;7.53;4.03;;;1.60;99.90;;;;;;5076256;28;20080;-71
2021/12/07 03:40:33;;;;;;;6.15;3.92;;;1.60;99.90;;;;;;5076629;28;20026;-72
2021/12/07 03:42:59;;;;;;;6.95;4.13;;;1.60;99.90;;;;;;5075644;28;20401;-72
2021/12/07 03:45:25;;;;;;;5.63;4.10;;;1.60;99.90;;;;;;5072702;28;20030;-71
2021/12/07 03:47:52;;;;;;;4.45;3.95;;;1.60;99.90;;;;;;5075691;28;20026;-71
2021/12/07 03:50:21;;;;;;;4.50;3.67;;;1.60;99.90;;;;;;5009398;28;20365;-71
2021/12/07 03:52:47;;;;;;;5.93;4.13;;;1.70;99.90;;;;;;5076955;28;20026;-72
2021/12/07 03:55:13;;;;;;;4.82;4.20;;;1.70;99.90;;;;;;5076323;28;20054;-71
2021/12/07 03:57:39;;;;;;;4.03;3.50;;;1.70;99.90;;;;;;5072899;28;20058;-71
2021/12/07 04:00:08;;;;;;;4.90;3.88;;;1.70;99.90;;;;;;5074704;28;20029;-71
2021/12/07 04:02:39;;;;;;;5.10;4.07;;;1.80;99.90;;;;;;5076798;28;20083;-72
2021/12/07 04:05:18;;;;;;;4.97;4.03;;;1.80;99.90;;;;;;5076083;28;20141;-72
2021/12/07 04:07:44;;;;;;;5.20;3.47;;;1.80;99.90;;;;;;5075361;28;20466;-72
2021/12/07 04:10:12;;;;;;;5.55;3.55;;;1.80;99.90;;;;;;5066528;28;20038;-72
2021/12/07 04:12:38;;;;;;;4.68;3.75;;;1.90;99.90;;;;;;5069493;28;20030;-72
2021/12/07 04:15:09;;;;;;;6.28;3.75;;;1.90;99.90;;;;;;5072521;28;20032;-72
2021/12/07 04:17:35;;;;;;;4.45;3.72;;;1.90;99.90;;;;;;5071557;28;20061;-73
2021/12/07 04:20:04;;;;;;;4.25;3.28;;;1.90;99.90;;;;;;5076416;28;20120;-72
2021/12/07 04:22:29;;;;;;;5.78;4.00;;;1.90;99.90;;;;;;5076294;28;20030;-72
2021/12/07 04:24:55;;;;;;;5.63;3.50;;;1.90;99.90;;;;;;5070657;28;20032;-72
2021/12/07 04:27:21;;;;;;;4.30;3.50;;;2.00;99.90;;;;;;5065232;28;20061;-72
2021/12/07 04:29:46;;;;;;;7.90;3.60;;;2.00;99.90;;;;;;5075333;28;20060;-72
2021/12/07 04:32:12;;;;;;;3.78;3.33;;;2.00;99.90;;;;;;5075063;28;20037;-72
2021/12/07 04:34:38;;;;;;;3.70;3.20;;;2.00;99.90;;;;;;5008215;28;20026;-72
2021/12/07 04:37:05;;;;;;;5.40;3.60;;;2.00;99.90;;;;;;5075009;28;20025;-72
2021/12/07 04:39:30;;;;;;;3.33;2.80;;;2.10;99.90;;;;;;5075547;28;20036;-72
2021/12/07 04:41:56;;;;;;;4.07;3.28;;;2.10;99.90;;;;;;5075500;28;20056;-72
2021/12/07 04:44:23;;;;;;;4.07;3.28;;;2.10;99.90;;;;;;5074452;28;20517;-72
2021/12/07 04:47:09;;;;;;;4.35;3.03;;;2.10;99.90;;;;;;5069312;28;20022;-72
2021/12/07 04:57:48;;;;;;;3.67;2.45;;;2.20;99.90;;;;;;5007939;28;20393;-73
2021/12/07 05:00:16;;;;;;;3.28;2.92;;;2.20;99.90;;;;;;5074182;28;20022;-74
2021/12/07 05:02:45;;;;;;;4.68;2.55;;;2.20;99.90;;;;;;5075779;28;20033;-71
2021/12/07 05:05:14;;;;;;;3.13;2.65;;;2.30;99.90;;;;;;5075229;28;20417;-71
2021/12/07 05:07:47;;;;;;;3.42;2.70;;;2.30;99.90;;;;;;5074443;28;20431;-72
2021/12/07 05:10:31;;;;;;;2.38;2.05;;;2.30;99.90;;;;;;5068882;28;20026;-71
2021/12/07 05:18:55;;;;;;;2.00;1.90;;;2.40;99.90;;;;;;5006504;28;20038;-71
2021/12/07 05:24:00;;;;;;;1.88;1.75;;;2.50;99.90;;;;;;5009096;28;20057;-73
2021/12/07 05:40:03;;;;;;;5.50;2.15;;;2.60;99.90;;;;;;5008161;28;20060;-71
2021/12/07 05:42:29;;;;;;;2.30;2.10;;;2.60;99.90;;;;;;5075346;28;20083;-71
2021/12/07 05:44:55;;;;;;;6.00;1.80;;;2.60;99.90;;;;;;5067261;28;20026;-71
2021/12/07 05:47:22;;;;;;;5.85;2.00;;;2.60;99.90;;;;;;5075412;28;20030;-72
2021/12/07 05:49:48;;;;;;;4.35;1.60;;;2.60;99.90;;;;;;5076116;28;20034;-72
2021/12/07 05:52:14;;;;;;;3.10;1.55;;;2.60;99.90;;;;;;5076942;28;20030;-72
2021/12/07 05:54:40;;;;;;;7.05;1.70;;;2.70;99.90;;;;;;5079577;28;20505;-72
2021/12/07 05:57:06;;;;;;;5.85;1.60;;;2.70;99.90;;;;;;5078640;28;20087;-72
2021/12/07 05:59:32;;;;;;;4.32;2.05;;;2.70;99.90;;;;;;5079221;28;20687;-72
2021/12/07 06:01:58;;;;;;;3.80;1.63;;;2.70;99.90;;;;;;5079880;28;20026;-72
2021/12/07 06:04:24;;;;;;;3.38;1.80;;;2.70;99.90;;;;;;5079974;28;20382;-72
2021/12/07 06:06:50;;;;;;;3.15;1.50;;;2.70;99.90;;;;;;5079669;28;20100;-72
2021/12/07 06:09:15;;;;;;;4.40;2.10;;;2.70;99.90;;;;;;5077941;28;20029;-72
2021/12/07 06:11:42;;;;;;;5.07;2.47;;;2.70;99.90;;;;;;5078847;28;20034;-72
2021/12/07 06:14:11;;;;;;;3.53;1.83;;;2.70;99.90;;;;;;5092083;28;20032;-73
2021/12/07 06:16:37;;;;;;;4.13;1.92;;;2.70;99.90;;;;;;5076018;28;20382;-72
2021/12/07 06:19:02;;;;;;;4.97;1.92;;;2.70;99.90;;;;;;5075774;28;20113;-72
2021/12/07 06:21:29;;;;;;;4.38;1.70;;;2.70;99.90;;;;;;5078953;28;20108;-72
2021/12/07 06:23:55;;;;;;;4.43;1.90;;;2.70;99.90;;;;;;5141904;22;20107;-67
2021/12/07 06:26:22;;;;;;;6.30;2.38;;;2.70;99.90;;;;;;5077829;28;20025;-65
2021/12/07 06:28:47;;;;;;;6.88;3.42;;;2.70;99.90;;;;;;5071272;28;20079;-67
2021/12/07 06:31:13;;;;;;;5.03;2.10;;;2.70;99.90;;;;;;5081574;28;20030;-67
2021/12/07 06:33:39;;;;;;;14.20;6.28;;;2.70;99.90;;;;;;5078696;28;20075;-67
2021/12/07 06:36:05;;;;;;;5.38;2.00;;;2.70;99.90;;;;;;5079803;28;20029;-67
2021/12/07 06:38:33;;;;;;;5.60;2.38;;;2.70;99.90;;;;;;5062690;28;20037;-67
2021/12/07 06:41:01;;;;;;;4.32;2.30;;;2.70;99.90;;;;;;5078791;28;20056;-68
2021/12/07 06:43:27;;;;;;;5.53;2.72;;;2.70;99.90;;;;;;5078251;28;20033;-68
2021/12/07 06:45:53;;;;;;;6.00;2.60;;;2.70;99.90;;;;;;5076709;28;20030;-68
2021/12/07 06:48:19;;;;;;;5.20;2.20;;;2.70;99.90;;;;;;5066730;28;20049;-68
2021/12/07 06:50:45;;;;;;;6.70;2.83;;;2.70;99.90;;;;;;5078049;28;20064;-68
2021/12/07 06:53:11;;;;;;;6.25;2.60;;;2.60;99.90;;;;;;5078892;28;20493;-68
2021/12/07 06:55:36;;;;;;;4.20;2.20;;;2.60;99.90;;;;;;5073700;28;20034;-68
2021/12/07 06:58:03;;;;;;;2.35;2.00;;;2.60;99.90;;;;;;5076915;28;20034;-68
2021/12/07 07:00:29;;;;;;;4.40;2.20;;;2.60;99.90;;;;;;5078634;28;20030;-68
2021/12/07 07:02:55;;;;;;;6.35;2.63;;;2.60;99.90;;;;;;5010145;28;20045;-68
2021/12/07 07:05:21;;;;;;;6.57;2.20;;;2.50;99.90;;;;;;5077296;28;20030;-68
2021/12/07 07:07:47;;;;;;;7.68;2.15;;;2.50;99.90;;;;;;5077729;28;20440;-68
2021/12/07 07:10:16;;;;;;;4.50;2.20;;;2.50;99.90;;;;;;5078135;28;20025;-67
2021/12/07 07:12:42;;;;;;;3.63;2.20;;;2.50;99.90;;;;;;5078082;28;20026;-68
2021/12/07 07:15:08;;;;;;;5.43;2.95;;;2.50;99.90;;;;;;5074237;28;20026;-68
2021/12/07 07:17:34;;;;;;;7.07;2.78;;;2.50;99.90;;;;;;5077846;28;20057;-68
2021/12/07 07:20:02;;;;;;;4.22;2.53;;;2.50;99.90;;;;;;5078715;28;20128;-69
2021/12/07 07:22:27;;;;;;;7.00;2.60;;;2.50;99.90;;;;;;5084760;28;20026;-69
2021/12/07 07:24:53;;;;;;;5.22;2.80;;;2.50;99.90;;;;;;5079302;28;20018;-68
2021/12/07 07:27:19;;;;;;;5.97;2.78;;;2.60;99.90;;;;;;5082075;28;20113;-68
2021/12/07 07:29:45;;;;;;;9.63;4.78;;;2.60;99.90;;;;;;5083779;28;20026;-68
2021/12/07 07:32:11;;;;;;;6.57;3.10;;;2.60;99.90;;;;;;5076560;28;20450;-70
2021/12/07 07:34:38;;;;;;;7.15;3.28;;;2.70;99.90;;;;;;5080394;28;20117;-67
2021/12/07 07:37:04;;;;;;;7.28;2.75;;;2.70;99.90;;;;;;5079603;28;20477;-67
2021/12/07 07:39:29;;;;;;;7.05;2.75;;;2.80;99.90;;;;;;5084414;28;20038;-68
2021/12/07 07:41:55;;;;;;;6.78;2.90;;;2.90;99.90;;;;;;5076679;28;20071;-68
2021/12/07 07:44:21;;;;;;;4.97;2.83;;;2.90;99.90;;;;;;5088595;28;20362;-67
2021/12/07 07:46:47;;;;;;;9.23;3.25;;;2.90;99.90;;;;;;5091064;28;20396;-67
2021/12/07 07:49:13;;;;;;;6.70;2.67;;;3.00;99.90;;;;;;5076727;28;20065;-68
2021/12/07 07:51:39;;;;;;;4.03;2.65;;;3.00;99.90;;;;;;5082897;28;20489;-68
2021/12/07 07:54:05;;;;;;;5.32;2.83;;;3.00;99.90;;;;;;5078323;28;20022;-68
2021/12/07 07:56:32;;;;;;;6.53;2.72;;;3.00;99.90;;;;;;5040353;28;20030;-68
2021/12/07 07:58:58;;;;;;;4.57;2.13;;;3.00;99.90;;;;;;5075645;28;20037;-68
2021/12/07 08:01:24;;;;;;;6.47;2.20;;;3.00;99.90;;;;;;5067908;28;20140;-68
2021/12/07 08:03:51;;;;;;;5.18;2.30;;;3.00;99.90;;;;;;5084105;28;20473;-68
2021/12/07 08:06:17;;;;;;;6.47;2.63;;;3.00;99.90;;;;;;5077097;28;20037;-68
2021/12/07 08:08:42;;;;;;;8.43;2.45;;;3.00;99.90;;;;;;5043813;28;20497;-68
2021/12/07 08:11:08;;;;;;;5.13;2.28;;;3.00;99.90;;;;;;5082593;28;20028;-68
2021/12/07 08:13:34;;;;;;;7.32;2.38;;;3.10;99.90;;;;;;5082735;28;20034;-68
2021/12/07 08:16:00;;;;;;;7.25;1.90;;;3.10;99.90;;;;;;5086745;28;20021;-68
2021/12/07 08:18:26;;;;;;;3.70;2.05;;;3.10;99.90;;;;;;5087212;28;20038;-67
2021/12/07 08:20:51;;;;;;;7.68;2.03;;;3.10;99.90;;;;;;5075726;28;20026;-68
2021/12/07 08:23:17;;;;;;;7.70;1.90;;;3.10;99.90;;;;;;5077722;28;20049;-68
2021/12/07 08:25:47;;;;;;;7.13;1.92;;;3.10;99.90;;;;;;5081662;28;20053;-68
2021/12/07 08:28:14;;;;;;;10.57;2.00;;;3.10;99.90;;;;;;5096824;28;20038;-68
2021/12/07 08:30:44;;;;;;;3.40;1.70;;;3.10;99.90;;;;;;5093674;28;20033;-67
2021/12/07 08:33:10;;;;;;;6.97;2.10;;;3.20;99.90;;;;;;5080738;28;20032;-68
2021/12/07 08:35:36;;;;;;;6.53;1.92;;;3.20;99.90;;;;;;5080079;28;20030;-68
2021/12/07 08:38:02;;;;;;;6.80;1.90;;;3.20;99.90;;;;;;5080673;28;20124;-68
2021/12/07 08:40:30;;;;;;;7.25;2.00;;;3.20;99.90;;;;;;5080766;28;20739;-68
2021/12/07 08:42:56;;;;;;;4.45;1.90;;;3.30;99.90;;;;;;5087660;28;20501;-68
2021/12/07 08:45:23;;;;;;;4.40;2.08;;;3.30;99.90;;;;;;5070018;28;20134;-67
2021/12/07 08:47:50;;;;;;;3.25;1.60;;;3.30;99.90;;;;;;5075686;28;20133;-67
2021/12/07 08:50:18;;;;;;;5.85;2.05;;;3.30;99.90;;;;;;5009149;28;20018;-69
2021/12/07 08:52:45;;;;;;;7.90;1.90;;;3.30;99.90;;;;;;5076268;28;20521;-68
2021/12/07 09:00:24;;;;;;;5.57;1.77;;;3.40;99.90;;;;;;5003013;28;20041;-67
2021/12/07 09:02:50;;;;;;;6.10;1.88;;;3.40;99.90;;;;;;5076537;28;20422;-67
2021/12/07 09:05:17;;;;;;;11.13;2.22;;;3.40;99.90;;;;;;5074720;28;20153;-67
2021/12/07 09:07:44;;;;;;;5.63;1.45;;;3.40;99.90;;;;;;5073986;28;20056;-68
2021/12/07 09:10:10;;;;;;;6.18;1.70;;;3.40;99.90;;;;;;5076885;28;20109;-68
2021/12/07 09:12:36;;;;;;;7.72;1.92;;;3.40;99.90;;;;;;5089502;28;20042;-67
2021/12/07 09:15:03;;;;;;;7.47;2.03;;;3.40;99.90;;;;;;5076006;28;20401;-67
2021/12/07 09:17:28;;;;;;;10.23;2.17;;;3.50;99.90;;;;;;5075075;28;20343;-67
2021/12/07 09:19:54;;;;;;;4.68;1.95;;;3.50;99.90;;;;;;5074971;28;20083;-68
2021/12/07 09:22:20;;;;;;;9.27;1.92;;;3.50;99.90;;;;;;5075986;28;20033;-68
2021/12/07 09:24:45;;;;;;;4.63;1.92;;;3.50;99.90;;;;;;5076215;28;20038;-67
2021/12/07 09:27:11;;;;;;;6.80;2.08;;;3.50;99.90;;;;;;5080269;28;20500;-67
2021/12/07 09:29:37;;;;;;;6.57;1.95;;;3.60;99.90;;;;;;5082442;28;20088;-67
2021/12/07 09:32:04;;;;;;;3.88;1.80;;;3.60;99.90;;;;;;5082488;28;20600;-68
2021/12/07 09:34:30;;;;;;;6.35;1.83;;;3.60;99.90;;;;;;5082404;28;20422;-68
2021/12/07 09:36:56;;;;;;;6.07;2.03;;;3.70;99.90;;;;;;5082734;28;20030;-67
2021/12/07 09:39:23;;;;;;;7.25;2.38;;;3.70;99.90;;;;;;5082628;28;20489;-67
2021/12/07 09:41:49;;;;;;;10.63;2.45;;;3.70;99.90;;;;;;5083387;28;20486;-67
2021/12/07 09:44:15;;;;;;;8.48;2.78;;;3.80;99.90;;;;;;5081099;28;20026;-68
2021/12/07 09:46:42;;;;;;;5.97;1.95;;;3.80;99.90;;;;;;5074038;28;20041;-67
2021/12/07 09:49:09;;;;;;;6.15;2.00;;;3.80;99.90;;;;;;5081730;28;20030;-68
2021/12/07 09:51:36;;;;;;;6.97;2.20;;;3.80;99.90;;;;;;5082418;28;20446;-67
2021/12/07 09:54:03;;;;;;;10.00;1.92;;;3.80;99.90;;;;;;5082825;28;20063;-67
2021/12/07 09:56:30;;;;;;;4.05;1.90;;;3.80;99.90;;;;;;5083002;28;20086;-68
2021/12/07 09:58:58;;;;;;;8.85;2.10;;;3.80;99.90;;;;;;5081737;28;20064;-67
2021/12/07 10:01:27;;;;;;;12.85;2.22;;;3.80;99.90;;;;;;5083108;28;20405;-68
2021/12/07 10:03:53;;;;;;;5.03;1.95;;;3.80;99.90;;;;;;5082241;28;20517;-67
2021/12/07 10:06:19;;;;;;;5.65;2.03;;;3.90;99.90;;;;;;5083109;28;20087;-67
2021/12/07 10:08:46;;;;;;;5.47;1.63;;;3.80;99.90;;;;;;5082191;28;20162;-68
2021/12/07 10:11:13;;;;;;;6.50;1.67;;;3.80;99.90;;;;;;5082529;28;20078;-67
2021/12/07 10:13:41;;;;;;;6.25;1.90;;;3.90;99.90;;;;;;5092207;28;20116;-68
2021/12/07 10:16:09;;;;;;;6.68;1.88;;;3.90;99.90;;;;;;5073905;28;20034;-67
2021/12/07 10:18:36;;;;;;;4.00;1.40;;;3.90;99.90;;;;;;5081849;28;20030;-68
2021/12/07 10:21:10;;;;;;;11.02;2.05;;;3.90;99.90;;;;;;5082118;28;20087;-67
2021/12/07 10:23:50;;;;;;;5.38;1.38;;;4.00;99.90;;;;;;5081889;28;20033;-68
2021/12/07 10:26:20;;;;;;;5.57;1.52;;;4.00;99.90;;;;;;5076426;28;20025;-67
2021/12/07 10:28:52;;;;;;;4.55;1.30;;;4.00;99.90;;;;;;5080199;28;20034;-68
2021/12/07 10:31:20;;;;;;;7.03;1.50;;;4.10;99.90;;;;;;5080433;28;20022;-68
2021/12/07 10:33:53;;;;;;;9.60;1.65;;;4.10;99.90;;;;;;5078708;28;20018;-68
2021/12/07 10:36:24;;;;;;;5.13;1.30;;;4.10;99.90;;;;;;5078580;28;20034;-68
2021/12/07 10:39:05;;;;;;;3.53;1.45;;;4.10;99.90;;;;;;5071927;28;20519;-69
2021/12/07 10:41:33;;;;;;;5.70;1.55;;;4.10;99.90;;;;;;5078607;28;20457;-68
2021/12/07 10:44:05;;;;;;;5.55;1.42;;;4.10;99.90;;;;;;5079782;28;20125;-68
2021/12/07 10:46:35;;;;;;;3.22;1.50;;;4.20;99.90;;;;;;5010714;28;20542;-67
2021/12/07 10:49:43;;;;;;;10.52;3.22;;;4.10;99.90;;;;;;5075856;28;20396;-68
2021/12/07 10:52:30;;;;;;;15.50;2.58;;;4.20;99.90;;;;;;5067551;28;20035;-68
2021/12/07 10:55:13;;;;;;;5.95;2.47;;;4.20;99.90;;;;;;5083118;28;20039;-68
2021/12/07 10:57:38;;;;;;;5.63;1.58;;;4.20;99.90;;;;;;5049473;28;20041;-67
2021/12/07 11:00:07;;;;;;;6.22;1.58;;;4.30;99.90;;;;;;5078661;28;20030;-67
2021/12/07 11:02:36;;;;;;;9.45;2.00;;;4.30;99.90;;;;;;5079804;28;20431;-69
2021/12/07 11:05:07;;;;;;;7.43;1.90;;;4.30;99.90;;;;;;5077648;28;20021;-66
2021/12/07 11:07:33;;;;;;;7.13;1.40;;;4.40;99.90;;;;;;5077913;28;20113;-66
2021/12/07 11:10:21;;;;;;;4.20;1.77;;;4.40;99.90;;;;;;5095760;28;20055;-68
2021/12/07 11:13:15;;;;;;;3.78;1.10;;;4.40;99.90;;;;;;5096334;28;20041;-68
2021/12/07 11:15:49;;;;;;;5.10;1.20;;;4.40;99.90;;;;;;5077297;28;20052;-68
2021/12/07 11:18:20;;;;;;;5.68;1.40;;;4.50;99.90;;;;;;5079641;28;20037;-66
2021/12/07 11:20:45;;;;;;;3.58;1.30;;;4.50;99.90;;;;;;5076212;28;20557;-68
2021/12/07 11:23:28;;;;;;;10.30;2.13;;;4.60;99.90;;;;;;5077200;28;20125;-68
2021/12/07 11:31:24;;;;;;;3.17;1.10;;;4.60;99.90;;;;;;5081828;28;20044;-68
2021/12/07 11:34:03;;;;;;;4.00;1.50;;;4.70;99.90;;;;;;5094354;28;20046;-68
2021/12/07 11:36:33;;;;;;;4.38;1.20;;;4.70;99.90;;;;;;5066732;28;20038;-68
2021/12/07 11:38:59;;;;;;;8.45;1.45;;;4.70;99.90;;;;;;5074813;28;20030;-68
2021/12/07 11:41:33;;;;;;;5.50;1.20;;;4.70;99.90;;;;;;5079515;28;20033;-66
2021/12/07 11:44:07;;;;;;;7.18;1.30;;;4.70;99.90;;;;;;5078490;28;20030;-66
2021/12/07 11:46:36;;;;;;;4.95;1.10;;;4.70;99.90;;;;;;5099389;28;20032;-64
2021/12/07 11:49:12;;;;;;;8.45;1.10;;;4.70;99.90;;;;;;5077765;28;20026;-67
2021/12/07 11:51:40;;;;;;;4.10;1.10;;;4.70;99.90;;;;;;5077469;28;20065;-67
2021/12/07 11:54:07;;;;;;;3.72;1.00;;;4.80;99.90;;;;;;5084254;28;20100;-66
2021/12/07 11:56:34;;;;;;;5.57;1.02;;;4.80;99.90;;;;;;5079498;28;20435;-66
2021/12/07 11:59:00;;;;;;;3.13;1.23;;;4.90;99.90;;;;;;5060993;28;20501;-68
2021/12/07 12:01:26;;;;;;;3.45;1.20;;;4.80;99.90;;;;;;5080462;28;20052;-68
2021/12/07 12:03:51;;;;;;;4.95;1.27;;;4.80;99.90;;;;;;5077692;28;20052;-68
2021/12/07 12:06:17;;;;;;;4.63;1.20;;;4.90;99.90;;;;;;5077188;28;20246;-68
2021/12/07 12:08:43;;;;;;;5.07;1.17;;;5.20;99.90;;;;;;5076602;28;20026;-68
2021/12/07 12:11:20;;;;;;;7.97;1.40;;;5.50;99.90;;;;;;5077403;28;20114;-68
2021/12/07 12:14:06;;;;;;;6.05;1.35;;;5.80;99.90;;;;;;5076227;28;20026;-68
2021/12/07 12:17:02;;;;;;;5.63;2.13;;;6.00;99.90;;;;;;5066373;28;20483;-68
2021/12/07 12:19:43;;;;;;;8.45;1.20;;;6.30;99.90;;;;;;5093837;28;20031;-67
2021/12/07 12:22:35;;;;;;;6.00;1.73;;;6.50;99.90;;;;;;5057518;28;20121;-68
2021/12/07 12:25:08;;;;;;;7.13;1.50;;;6.50;99.90;;;;;;5076695;28;20033;-68
2021/12/07 12:27:37;;;;;;;3.75;1.13;;;6.50;99.90;;;;;;5098330;28;20507;-68
2021/12/07 12:30:20;;;;;;;4.60;1.30;;;6.30;99.90;;;;;;5094376;28;20031;-68
2021/12/07 12:32:47;;;;;;;;;;;6.10;99.90;;;;;;5069132;28;20057;-68
2021/12/07 12:35:14;;;;;;;3.90;1.45;;;6.00;99.90;;;;;;5076927;28;19957;-68
2021/12/07 12:37:46;;;;;;;7.70;1.20;;;5.80;99.90;;;;;;5075760;28;20464;-68
2021/12/07 12:40:21;;;;;;;3.78;1.10;;;5.60;99.90;;;;;;5057063;28;20023;-68
2021/12/07 12:42:50;;;;;;;4.88;1.98;;;5.50;99.90;;;;;;5071523;28;20034;-68
2021/12/07 12:45:25;;;;;;;5.25;2.40;;;5.40;99.90;;;;;;5075840;28;20507;-68
2021/12/07 12:48:03;;;;;;;4.20;1.90;;;5.40;99.90;;;;;;5079611;28;20055;-68
2021/12/07 12:50:40;;;;;;;5.25;1.55;;;5.70;99.90;;;;;;5075301;28;20118;-65
2021/12/07 12:53:26;;;;;;;4.10;1.30;;;5.90;99.90;;;;;;5064163;28;20022;-67
2021/12/07 12:55:57;;;;;;;16.88;7.85;;;6.10;99.90;;;;;;5076066;28;20222;-66
2021/12/07 12:58:29;;;;;;;7.28;2.28;;;6.10;99.90;;;;;;5008638;28;20036;-68
2021/12/07 13:01:10;;;;;;;4.93;2.42;;;6.20;99.90;;;;;;5085781;28;20420;-68
2021/12/07 13:03:57;;;;;;;3.28;1.17;;;6.30;99.90;;;;;;5090520;28;20034;-68
2021/12/07 13:06:32;;;;;;;9.27;1.20;;;6.50;99.90;;;;;;5076025;28;20524;-68
2021/12/07 13:09:20;;;;;;;3.83;1.30;;;6.80;99.90;;;;;;5075200;28;20398;-65
2021/12/07 13:11:52;;;;;;;3.53;1.52;;;7.10;99.90;;;;;;5076682;28;20025;-68
2021/12/07 13:14:24;;;;;;;4.40;1.23;;;7.30;99.90;;;;;;5072716;28;20091;-68
2021/12/07 13:17:06;;;;;;;8.80;1.20;;;7.50;99.90;;;;;;5065886;28;20034;-68
2021/12/07 13:19:53;;;;;;;6.28;1.27;;;7.60;99.90;;;;;;5071881;28;20038;-68
2021/12/07 13:22:19;;;;;;;6.20;1.50;;;7.50;99.90;;;;;;5072542;28;20060;-66
2021/12/07 13:24:46;;;;;;;5.57;1.48;;;7.30;99.90;;;;;;5083531;28;20037;-68
2021/12/07 13:27:15;;;;;;;2.40;1.15;;;7.10;99.90;;;;;;5089072;28;20072;-68
2021/12/07 13:29:54;;;;;;;8.25;1.80;;;6.80;99.90;;;;;;5084788;28;20036;-68
2021/12/07 13:32:20;;;;;;;4.65;1.58;;;6.60;99.90;;;;;;5030671;28;20089;-68
2021/12/07 13:34:58;;;;;;;4.38;1.35;;;6.50;99.90;;;;;;5089794;28;20433;-68
2021/12/07 13:37:47;;;;;;;3.72;1.50;;;6.30;99.90;;;;;;5089053;28;20149;-68
2021/12/07 13:40:19;;;;;;;8.82;1.88;;;6.20;99.90;;;;;;5066729;28;20402;-68
2021/12/07 13:42:50;;;;;;;10.98;2.45;;;6.10;99.90;;;;;;5072424;28;20131;-68
2021/12/07 13:45:19;;;;;;;8.38;1.70;;;6.00;99.90;;;;;;5074517;28;20453;-68
2021/12/07 13:47:47;;;;;;;4.10;1.30;;;6.00;99.90;;;;;;5091119;28;20093;-68
2021/12/07 13:50:25;;;;;;;5.38;1.20;;;5.80;99.90;;;;;;5088349;28;20084;-68
2021/12/07 13:52:54;;;;;;;7.00;1.60;;;5.70;99.90;;;;;;5084433;28;20089;-68
2021/12/07 13:55:32;;;;;;;6.45;1.40;;;5.60;99.90;;;;;;5072163;28;20042;-68
2021/12/07 13:58:01;;;;;;;2.90;1.10;;;5.60;99.90;;;;;;5073656;28;20034;-67
2021/12/07 14:00:30;;;;;;;8.45;1.58;;;5.50;99.90;;;;;;5012040;28;20034;-68
2021/12/07 14:03:01;;;;;;;5.07;1.42;;;5.50;99.90;;;;;;5073483;28;20022;-68
2021/12/07 14:05:37;;;;;;;4.28;1.15;;;5.50;99.90;;;;;;5081252;28;20119;-68
2021/12/07 14:08:11;;;;;;;4.32;1.42;;;5.40;99.90;;;;;;5071214;28;20026;-68
2021/12/07 14:10:44;;;;;;;7.43;2.60;;;5.40;99.90;;;;;;5088626;28;20023;-68
2021/12/07 14:13:10;;;;;;;3.95;1.65;;;5.50;99.90;;;;;;5054630;28;20080;-68
2021/12/07 14:15:39;;;;;;;4.63;1.40;;;5.60;99.90;;;;;;5045108;28;20026;-68
2021/12/07 14:18:11;;;;;;;15.90;5.50;;;5.80;99.90;;;;;;5074925;28;20030;-68
2021/12/07 14:20:48;;;;;;;8.85;2.72;;;5.90;99.90;;;;;;5078869;28;20062;-68
2021/12/07 14:23:27;;;;;;;19.20;4.93;;;6.10;99.90;;;;;;5064724;28;20074;-68
2021/12/07 14:25:58;;;;;;;5.63;1.63;;;6.10;99.90;;;;;;5067803;28;20032;-68
2021/12/07 14:28:42;;;;;;;6.82;2.60;;;6.10;99.90;;;;;;5071297;28;20123;-68
2021/12/07 14:31:11;;;;;;;4.82;2.40;;;6.00;99.90;;;;;;5075902;28;20057;-67
2021/12/07 14:33:59;;;;;;;7.93;2.17;;;5.90;99.90;;;;;;5063306;28;20631;-67
2021/12/07 14:36:40;;;;;;;10.80;3.58;;;5.90;99.90;;;;;;5066184;28;20033;-68
2021/12/07 14:39:10;;;;;;;14.88;6.25;;;5.80;99.90;;;;;;5007263;28;20141;-67
2021/12/07 14:42:13;;;;;;;24.52;7.43;;;5.80;99.90;;;;;;5068318;28;20494;-67
2021/12/07 14:44:45;;;;;;;7.97;3.42;;;5.80;99.90;;;;;;5068126;28;20552;-68